createdAt,value
2022-11-17T00:00:58.698Z,10.1
2022-11-17T00:05:06.764Z,9.9
2022-11-17T00:07:10.830Z,9.8
2022-11-17T00:09:14.851Z,9.8
2022-11-17T00:11:21.906Z,9.7
2022-11-17T00:13:25.911Z,9.6
2022-11-17T00:17:33.986Z,9.5
2022-11-17T00:19:38.017Z,9.6
2022-11-17T00:21:42.071Z,9.4
2022-11-17T00:23:46.082Z,9.4
2022-11-17T00:25:53.125Z,9.3
2022-11-17T00:27:57.147Z,9.4
2022-11-17T00:30:01.174Z,9.3
2022-11-17T00:32:05.185Z,9.2
2022-11-17T00:34:09.231Z,9.2
2022-11-17T00:36:13.258Z,9.2
2022-11-17T00:38:17.285Z,9.3
2022-11-17T00:40:24.299Z,9.3
2022-11-17T00:44:32.324Z,9.1
2022-11-17T00:46:56.627Z,9.3
2022-11-17T00:49:00.656Z,9.2
2022-11-17T00:51:04.655Z,9.3
2022-11-17T00:53:11.703Z,9.1
2022-11-17T00:55:15.747Z,9.2
2022-11-17T00:57:19.719Z,9.1
2022-11-17T00:59:23.728Z,9.3
2022-11-17T01:01:27.823Z,9.1
2022-11-17T01:03:31.899Z,9.3
2022-11-17T01:05:35.781Z,9.1
2022-11-17T01:07:42.787Z,9.1
2022-11-17T01:09:46.848Z,9.1
2022-11-17T01:11:50.850Z,9.3
2022-11-17T01:13:54.868Z,9.3
2022-11-17T01:15:58.860Z,9.4
2022-11-17T01:18:02.880Z,9.3
2022-11-17T01:20:06.906Z,9.2
2022-11-17T01:22:14.108Z,9.3
2022-11-17T01:26:21.939Z,9.3
2022-11-17T01:28:26.004Z,9.2
2022-11-17T01:30:29.969Z,9.4
2022-11-17T01:32:33.963Z,9.4
2022-11-17T01:38:49.029Z,9.1
2022-11-17T01:40:53.090Z,9.2
2022-11-17T01:41:56.557Z,9
2022-11-17T01:44:00.556Z,9.5
2022-11-17T01:46:04.579Z,9
2022-11-17T01:48:08.597Z,9.1
2022-11-17T01:50:15.597Z,9.2
2022-11-17T01:52:19.631Z,9.5
2022-11-17T01:54:23.616Z,9
2022-11-17T01:58:31.673Z,9.1
2022-11-17T02:00:35.674Z,9.5
2022-11-17T02:02:39.678Z,9.1
2022-11-17T02:04:46.712Z,8.9
2022-11-17T02:06:50.766Z,9.1
2022-11-17T02:10:58.776Z,9.6
2022-11-17T02:13:02.786Z,9.6
2022-11-17T02:15:06.778Z,9.6
2022-11-17T02:17:14.244Z,9.1
2022-11-17T02:19:17.832Z,9.6
2022-11-17T02:21:21.853Z,9.7
2022-11-17T02:23:25.916Z,9.3
2022-11-17T02:25:39.289Z,9.3
2022-11-17T02:27:33.905Z,9.1
2022-11-17T02:29:37.920Z,9.7
2022-11-17T02:31:41.923Z,9.2
2022-11-17T02:33:48.962Z,9.4
2022-11-17T02:35:52.960Z,9.7
2022-11-17T02:37:56.974Z,9.2
2022-11-17T02:39:00.508Z,9.8
2022-11-17T02:43:08.533Z,9.1
2022-11-17T02:45:12.617Z,9.1
2022-11-17T02:47:19.593Z,9.2
2022-11-17T02:51:29.158Z,9.1
2022-11-17T02:53:33.561Z,9.2
2022-11-17T02:55:37.183Z,9.6
2022-11-17T02:57:41.213Z,10
2022-11-17T02:59:45.237Z,9.7
2022-11-17T03:06:00.300Z,9.3
2022-11-17T03:08:04.322Z,9.9
2022-11-17T03:12:12.381Z,9.7
2022-11-17T03:14:16.386Z,9.4
2022-11-17T03:16:23.439Z,10.1
2022-11-17T03:18:27.427Z,10
2022-11-17T03:20:31.476Z,9.9
2022-11-17T03:22:35.490Z,9.9
2022-11-17T03:26:43.561Z,9.3
2022-11-17T03:28:47.554Z,10
2022-11-17T03:30:54.583Z,9.6
2022-11-17T03:32:58.612Z,10
2022-11-17T03:35:02.646Z,10.1
2022-11-17T03:36:06.150Z,9.9
2022-11-17T03:38:10.189Z,10
2022-11-17T03:40:14.213Z,9.7
2022-11-17T03:44:25.408Z,9.5
2022-11-17T03:46:29.294Z,9.5
2022-11-17T03:48:33.339Z,9.4
2022-11-17T03:52:41.403Z,10.1
2022-11-17T03:54:45.438Z,9.6
2022-11-17T03:56:49.484Z,10.1
2022-11-17T04:01:00.568Z,10.2
2022-11-17T04:03:04.582Z,9.6
2022-11-17T04:05:08.614Z,9.5
2022-11-17T04:07:12.773Z,10.1
2022-11-17T04:09:21.300Z,9.4
2022-11-17T04:11:20.709Z,9.5
2022-11-17T04:13:27.775Z,10.1
2022-11-17T04:15:31.789Z,10.1
2022-11-17T04:17:35.832Z,9.6
2022-11-17T04:19:39.855Z,10.2
2022-11-17T04:21:43.892Z,9.4
2022-11-17T04:27:59.015Z,9.6
2022-11-17T04:32:07.065Z,9.6
2022-11-17T04:34:31.235Z,9.6
2022-11-17T04:36:35.283Z,9.4
2022-11-17T04:38:39.318Z,9.6
2022-11-17T04:40:46.354Z,9.4
2022-11-17T04:44:54.427Z,9.5
2022-11-17T04:46:58.446Z,9.9
2022-11-17T04:51:06.491Z,9.7
2022-11-17T04:53:10.541Z,10.1
2022-11-17T04:55:17.578Z,10
2022-11-17T05:03:33.868Z,9.7
2022-11-17T05:05:37.692Z,9.8
2022-11-17T05:07:41.722Z,9.6
2022-11-17T05:09:48.795Z,9.9
2022-11-17T05:18:04.929Z,9.8
2022-11-17T05:20:08.931Z,9.4
2022-11-17T05:22:12.945Z,9.9
2022-11-17T05:26:24.052Z,10
2022-11-17T05:28:28.057Z,10
2022-11-17T05:29:31.562Z,9.4
2022-11-17T05:31:35.585Z,9.6
2022-11-17T05:33:40.027Z,9.4
2022-11-17T05:35:43.652Z,10.1
2022-11-17T05:37:50.674Z,9.5
2022-11-17T05:39:54.704Z,10.1
2022-11-17T05:41:58.726Z,9.5
2022-11-17T05:44:02.765Z,9.5
2022-11-17T05:46:06.793Z,9.4
2022-11-17T05:48:10.811Z,9.3
2022-11-17T05:50:14.818Z,9.7
2022-11-17T05:52:21.870Z,9.7
2022-11-17T05:54:25.898Z,10.1
2022-11-17T05:56:29.921Z,9.4
2022-11-17T05:58:33.937Z,10
2022-11-17T06:00:37.958Z,9.4
2022-11-17T06:02:42.016Z,9.8
2022-11-17T06:04:46.004Z,10
2022-11-17T06:11:01.121Z,10.1
2022-11-17T06:13:05.131Z,9.5
2022-11-17T06:15:09.155Z,9.8
2022-11-17T06:17:16.295Z,9.5
2022-11-17T06:21:24.265Z,10
2022-11-17T06:23:28.301Z,9.5
2022-11-17T06:25:32.313Z,9.7
2022-11-17T06:26:35.829Z,9.6
2022-11-17T06:28:39.858Z,10
2022-11-17T06:30:43.891Z,9.4
2022-11-17T06:32:47.908Z,9.6
2022-11-17T06:34:56.115Z,9.8
2022-11-17T06:36:59.017Z,9.8
2022-11-17T06:39:03.037Z,9.6
2022-11-17T06:41:11.647Z,10.1
2022-11-17T06:43:11.092Z,10
2022-11-17T06:45:15.116Z,10
2022-11-17T06:49:26.162Z,10
2022-11-17T06:53:34.565Z,9.6
2022-11-17T06:55:38.277Z,9.9
2022-11-17T06:57:42.304Z,9.5
2022-11-17T06:59:46.323Z,9.9
2022-11-17T07:01:50.342Z,9.7
2022-11-17T07:03:57.383Z,9.8
2022-11-17T07:06:01.412Z,9.7
2022-11-17T07:08:08.197Z,9.8
2022-11-17T07:10:09.439Z,9.7
2022-11-17T07:12:13.483Z,9.8
2022-11-17T07:14:17.508Z,9.8
2022-11-17T07:16:23.472Z,9.9
2022-11-17T07:22:36.603Z,9.9
2022-11-17T07:23:40.119Z,9.9
2022-11-17T07:25:44.174Z,9.9
2022-11-17T07:27:48.185Z,9.9
2022-11-17T07:29:52.486Z,9.9
2022-11-17T07:31:59.236Z,9.9
2022-11-17T07:34:03.257Z,10
2022-11-17T07:36:07.285Z,9.9
2022-11-17T07:40:15.338Z,10
2022-11-17T07:42:19.377Z,10
2022-11-17T07:44:23.386Z,10
2022-11-17T07:48:34.869Z,10
2022-11-17T07:50:38.468Z,10
2022-11-17T07:52:42.516Z,10
2022-11-17T07:54:46.562Z,10
2022-11-17T07:56:50.587Z,10
2022-11-17T07:58:54.576Z,10
2022-11-17T08:01:01.693Z,10.1
2022-11-17T08:03:05.666Z,10
2022-11-17T08:05:09.726Z,10.1
2022-11-17T08:09:17.781Z,10
2022-11-17T08:11:21.804Z,10.1
2022-11-17T08:13:25.856Z,10.1
2022-11-17T08:17:36.929Z,10
2022-11-17T08:19:40.979Z,10.1
2022-11-17T08:22:05.433Z,10.1
2022-11-17T08:24:07.281Z,10.1
2022-11-17T08:32:26.442Z,10.1
2022-11-17T08:34:30.469Z,10.1
2022-11-17T08:36:34.497Z,10.1
2022-11-17T08:38:38.734Z,10.1
2022-11-17T08:40:42.567Z,10.1
2022-11-17T08:42:49.639Z,10.1
2022-11-17T08:44:53.683Z,10.1
2022-11-17T08:46:59.449Z,10.1
2022-11-17T08:49:03.293Z,10.1
2022-11-17T08:51:07.307Z,10.1
2022-11-17T08:53:11.356Z,10.1
2022-11-17T08:55:15.462Z,10.1
2022-11-17T09:03:34.553Z,10
2022-11-17T09:11:54.562Z,10
2022-11-17T09:16:02.593Z,9.9
2022-11-17T09:17:06.124Z,10
2022-11-17T09:19:10.175Z,9.9
2022-11-17T09:21:14.204Z,9.9
2022-11-17T09:23:18.258Z,9.9
2022-11-17T09:25:25.289Z,9.8
2022-11-17T09:27:29.323Z,9.9
2022-11-17T09:29:33.350Z,9.9
2022-11-17T09:31:37.479Z,9.8
2022-11-17T09:39:56.522Z,9.8
2022-11-17T09:42:00.567Z,9.8
2022-11-17T09:44:04.585Z,9.8
2022-11-17T09:54:27.778Z,9.9
2022-11-17T09:58:36.300Z,10
2022-11-17T10:00:39.956Z,10.2
2022-11-17T10:02:44.009Z,10.1
2022-11-17T10:04:48.003Z,10
2022-11-17T10:06:52.111Z,9.9
2022-11-17T10:11:03.128Z,9.9
2022-11-17T10:13:07.153Z,9.9
2022-11-17T10:16:14.695Z,10
2022-11-17T10:18:18.728Z,10
2022-11-17T10:20:22.760Z,10
2022-11-17T10:22:29.826Z,9.9
2022-11-17T10:24:33.853Z,9.9
2022-11-17T10:26:37.901Z,9.9
2022-11-17T10:28:41.933Z,9.9
2022-11-17T10:30:45.970Z,10
2022-11-17T10:32:50.008Z,9.9
2022-11-17T10:34:54.044Z,9.9
2022-11-17T10:39:05.342Z,9.9
2022-11-17T10:41:09.152Z,9.8
2022-11-17T10:43:13.215Z,9.8
2022-11-17T10:45:17.231Z,9.7
2022-11-17T10:49:25.317Z,9.7
2022-11-17T10:53:42.978Z,9.7
2022-11-17T10:55:40.416Z,9.6
2022-11-17T10:57:44.450Z,9.6
2022-11-17T10:59:53.475Z,9.7
2022-11-17T11:01:52.526Z,9.7
2022-11-17T11:03:56.580Z,9.7
2022-11-17T11:06:03.616Z,9.7
2022-11-17T11:08:07.636Z,9.7
2022-11-17T11:11:15.204Z,9.6
2022-11-17T11:15:23.311Z,9.7
2022-11-17T11:17:27.319Z,9.7
2022-11-17T11:19:34.363Z,9.7
2022-11-17T11:21:38.390Z,9.8
2022-11-17T11:23:42.453Z,9.7
2022-11-17T11:25:46.465Z,9.7
2022-11-17T11:27:50.493Z,9.7
2022-11-17T11:29:54.522Z,9.7
2022-11-17T11:34:05.574Z,9.8
2022-11-17T11:36:09.601Z,9.8
2022-11-17T11:38:13.639Z,9.8
2022-11-17T11:44:25.827Z,9.9
2022-11-17T11:48:36.904Z,10
2022-11-17T11:50:41.971Z,10
2022-11-17T11:52:44.936Z,10
2022-11-17T11:54:51.108Z,10
2022-11-17T11:56:53.048Z,10.1
2022-11-17T11:58:57.055Z,10
2022-11-17T12:03:08.166Z,10.2
2022-11-17T12:05:12.174Z,10.2
2022-11-17T12:09:34.691Z,10.2
2022-11-17T12:11:38.720Z,10.2
2022-11-17T12:13:48.493Z,10.3
2022-11-17T12:17:53.901Z,10.4
2022-11-17T12:19:57.944Z,10.3
2022-11-17T12:22:02.004Z,10.2
2022-11-17T12:24:06.004Z,10.1
2022-11-17T12:26:10.045Z,10.2
2022-11-17T12:28:14.096Z,10.2
2022-11-17T12:32:25.195Z,10.1
2022-11-17T12:34:29.253Z,10.1
2022-11-17T12:36:33.280Z,10
2022-11-17T12:38:37.301Z,10.1
2022-11-17T12:40:41.344Z,10.1
2022-11-17T12:42:45.388Z,10.1
2022-11-17T12:44:52.455Z,10.1
2022-11-17T12:46:56.466Z,10.1
2022-11-17T12:49:00.544Z,10.2
2022-11-17T12:51:05.169Z,10.1
2022-11-17T12:53:08.596Z,10
2022-11-17T12:55:12.644Z,10.1
2022-11-17T12:57:16.827Z,10
2022-11-17T12:59:23.709Z,10.1
2022-11-17T13:03:31.776Z,10.1
2022-11-17T13:04:35.298Z,10.1
2022-11-17T13:08:43.421Z,10.1
2022-11-17T13:10:47.438Z,10.1
2022-11-17T13:12:54.462Z,10.1
2022-11-17T13:14:58.527Z,10
2022-11-17T13:17:02.551Z,10.1
2022-11-17T13:19:06.592Z,10.1
2022-11-17T13:21:10.612Z,10
2022-11-17T13:23:14.676Z,10.1
2022-11-17T13:25:18.681Z,10.1
2022-11-17T13:27:25.746Z,10.1
2022-11-17T13:29:29.760Z,10.1
2022-11-17T13:31:33.839Z,10.1
2022-11-17T13:33:40.464Z,10.1
2022-11-17T13:35:41.895Z,10
2022-11-17T13:37:45.943Z,10
2022-11-17T13:39:49.966Z,10
2022-11-17T13:41:56.995Z,10
2022-11-17T13:44:01.031Z,9.9
2022-11-17T13:46:05.082Z,9.9
2022-11-17T13:48:09.163Z,9.9
2022-11-17T13:50:13.135Z,9.9
2022-11-17T13:52:17.223Z,9.9
2022-11-17T13:54:21.202Z,9.9
2022-11-17T13:56:28.246Z,9.9
2022-11-17T13:58:33.222Z,9.9
2022-11-17T14:00:37.225Z,9.9
2022-11-17T14:03:44.756Z,9.8
2022-11-17T14:07:52.808Z,9.8
2022-11-17T14:09:59.888Z,9.7
2022-11-17T14:12:03.905Z,9.8
2022-11-17T14:16:11.933Z,9.8
2022-11-17T14:22:31.050Z,9.7
2022-11-17T14:26:35.087Z,9.7
2022-11-17T14:28:39.109Z,9.7
2022-11-17T14:32:47.142Z,9.7
2022-11-17T14:36:55.204Z,9.7
2022-11-17T14:39:02.237Z,9.7
2022-11-17T14:41:06.268Z,9.7
2022-11-17T14:45:15.917Z,9.7
2022-11-17T14:47:19.881Z,9.7
2022-11-17T14:49:23.904Z,9.7
2022-11-17T14:51:27.906Z,9.7
2022-11-17T14:55:38.992Z,9.7
2022-11-17T14:57:43.005Z,9.7
2022-11-17T14:58:46.493Z,9.7
2022-11-17T15:00:50.547Z,9.7
2022-11-17T15:02:54.568Z,9.7
2022-11-17T15:04:59.235Z,9.7
2022-11-17T15:07:05.716Z,9.7
2022-11-17T15:09:09.627Z,9.7
2022-11-17T15:11:13.686Z,9.6
2022-11-17T15:13:17.741Z,9.7
2022-11-17T15:15:21.754Z,9.7
2022-11-17T15:17:25.779Z,9.7
2022-11-17T15:19:29.789Z,9.6
2022-11-17T15:21:36.809Z,9.6
2022-11-17T15:23:45.842Z,9.7
2022-11-17T15:25:44.883Z,9.6
2022-11-17T15:27:48.945Z,9.6
2022-11-17T15:29:52.909Z,9.7
2022-11-17T15:31:56.976Z,9.6
2022-11-17T15:36:08.062Z,9.7
2022-11-17T15:38:12.098Z,9.6
2022-11-17T15:40:19.421Z,9.6
2022-11-17T15:42:20.148Z,9.7
2022-11-17T15:44:24.156Z,9.6
2022-11-17T15:46:28.206Z,9.7
2022-11-17T15:48:32.211Z,9.7
2022-11-17T15:50:39.240Z,9.6
2022-11-17T15:53:03.078Z,9.6
2022-11-17T15:54:47.288Z,9.7
2022-11-17T16:01:13.998Z,9.5
2022-11-17T16:03:20.939Z,9.4
2022-11-17T16:05:24.986Z,9.8
2022-11-17T16:09:33.042Z,9.8
2022-11-17T16:11:37.166Z,9.5
2022-11-17T16:13:41.075Z,9.5
2022-11-17T16:15:45.105Z,9.4
2022-11-17T16:17:52.151Z,9.4
2022-11-17T16:19:56.182Z,9.4
2022-11-17T16:22:00.224Z,9.5
2022-11-17T16:24:04.231Z,9.7
2022-11-17T16:26:08.270Z,9.8
2022-11-17T16:28:12.318Z,9.4
2022-11-17T16:30:16.355Z,9.6
2022-11-17T16:32:23.397Z,9.5
2022-11-17T16:34:27.439Z,9.4
2022-11-17T16:36:35.957Z,9.7
2022-11-17T16:38:35.486Z,9.7
2022-11-17T16:40:39.527Z,9.4
2022-11-17T16:42:43.582Z,9.4
2022-11-17T16:44:47.679Z,9.3
2022-11-17T16:46:54.671Z,9.3
2022-11-17T16:48:58.693Z,9.4
2022-11-17T16:51:02.735Z,9.4
2022-11-17T16:52:06.269Z,9.5
2022-11-17T16:54:10.309Z,9.4
2022-11-17T16:56:14.351Z,9.7
2022-11-17T17:02:29.529Z,9.7
2022-11-17T17:04:33.485Z,9.3
2022-11-17T17:08:41.570Z,9.6
2022-11-17T17:10:45.616Z,9.4
2022-11-17T17:12:49.629Z,9.4
2022-11-17T17:14:56.667Z,9.8
2022-11-17T17:17:00.747Z,9.7
2022-11-17T17:19:04.759Z,9.3
2022-11-17T17:21:08.785Z,9.7
2022-11-17T17:23:12.838Z,9.6
2022-11-17T17:25:16.874Z,9.3
2022-11-17T17:27:20.904Z,9.4
2022-11-17T17:29:27.949Z,9.3
2022-11-17T17:31:31.986Z,9.6
2022-11-17T17:33:36.030Z,9.7
2022-11-17T17:35:40.071Z,9.7
2022-11-17T17:37:44.082Z,9.7
2022-11-17T17:39:48.114Z,9.6
2022-11-17T17:41:52.151Z,9.5
2022-11-17T17:43:59.212Z,9.5
2022-11-17T17:46:03.238Z,9.7
2022-11-17T17:48:07.275Z,9.6
2022-11-17T17:51:14.816Z,9.2
2022-11-17T17:53:18.851Z,9.5
2022-11-17T17:55:22.886Z,9.3
2022-11-17T17:57:33.841Z,9.3
2022-11-17T17:59:33.962Z,9.3
2022-11-17T18:01:37.995Z,9.5
2022-11-17T18:03:42.017Z,9.3
2022-11-17T18:05:46.045Z,9.4
2022-11-17T18:07:50.074Z,9.6
2022-11-17T18:09:54.146Z,9.6
2022-11-17T18:12:01.198Z,9.6
2022-11-17T18:14:05.159Z,9.3
2022-11-17T18:16:09.170Z,9.3
2022-11-17T18:18:13.303Z,9.4
2022-11-17T18:20:17.230Z,9.2
2022-11-17T18:22:21.254Z,9.4
2022-11-17T18:24:25.297Z,9.1
2022-11-17T18:26:32.335Z,9.4
2022-11-17T18:28:36.367Z,9.6
2022-11-17T18:30:40.370Z,9.3
2022-11-17T18:32:44.398Z,9.6
2022-11-17T18:34:48.405Z,9.2
2022-11-17T18:36:52.609Z,9.3
2022-11-17T18:38:56.475Z,9.1
2022-11-17T18:41:03.503Z,9.4
2022-11-17T18:43:07.530Z,9.2
2022-11-17T18:45:11.541Z,9.4
2022-11-17T18:46:15.061Z,9.3
2022-11-17T18:50:23.104Z,9.3
2022-11-17T18:52:31.130Z,9.1
2022-11-17T18:54:34.143Z,9.3
2022-11-17T18:58:42.199Z,9.3
2022-11-17T19:00:46.235Z,9.3
2022-11-17T19:02:50.277Z,9.3
2022-11-17T19:04:54.281Z,9.3
2022-11-17T19:06:58.501Z,9.3
2022-11-17T19:09:05.306Z,9
2022-11-17T19:11:09.329Z,9.1
2022-11-17T19:13:13.327Z,9.1
2022-11-17T19:15:17.360Z,9.2
2022-11-17T19:17:21.362Z,9.2
2022-11-17T19:19:25.368Z,9.2
2022-11-17T19:21:29.386Z,9.3
2022-11-17T19:23:36.404Z,9.2
2022-11-17T19:27:44.421Z,9.2
2022-11-17T19:31:52.421Z,9.2
2022-11-17T19:33:56.421Z,9.1
2022-11-17T19:36:00.436Z,9.1
2022-11-17T19:38:07.444Z,9.2
2022-11-17T19:40:11.471Z,9.2
2022-11-17T19:42:15.456Z,9.2
2022-11-17T19:44:33.835Z,9.1
2022-11-17T19:48:41.856Z,9
2022-11-17T19:50:54.478Z,9.1
2022-11-17T19:52:52.852Z,9.1
2022-11-17T20:03:12.849Z,9
2022-11-17T20:05:19.865Z,9
2022-11-17T20:07:23.942Z,9
2022-11-17T20:11:31.845Z,9
2022-11-17T20:13:35.827Z,8.9
2022-11-17T20:15:40.084Z,8.8
2022-11-17T20:17:43.838Z,8.9
2022-11-17T20:20:38.370Z,8.9
2022-11-17T20:21:54.795Z,8.9
2022-11-17T20:26:02.768Z,8.6
2022-11-17T20:28:06.759Z,8.7
2022-11-17T20:30:14.978Z,8.8
2022-11-17T20:32:14.750Z,8.7
2022-11-17T20:34:21.766Z,8.8
2022-11-17T20:36:25.764Z,8.7
2022-11-17T20:39:33.250Z,8.7
2022-11-17T20:41:38.790Z,8.6
2022-11-17T20:45:46.752Z,8.6
2022-11-17T20:47:53.750Z,8.6
2022-11-17T20:49:57.727Z,8.6
2022-11-17T20:52:01.709Z,8.6
2022-11-17T20:58:13.670Z,8.6
2022-11-17T21:00:17.664Z,8.6
2022-11-17T21:02:24.646Z,8.5
2022-11-17T21:04:28.624Z,8.6
2022-11-17T21:06:32.615Z,8.5
2022-11-17T21:08:36.611Z,8.5
2022-11-17T21:10:40.593Z,8.5
2022-11-17T21:12:44.592Z,8.4
2022-11-17T21:14:48.572Z,8.4
2022-11-17T21:16:55.840Z,8.6
2022-11-17T21:18:59.546Z,8.6
2022-11-17T21:21:03.553Z,8.6
2022-11-17T21:23:07.521Z,8.6
2022-11-17T21:25:11.490Z,8.5
2022-11-17T21:27:15.477Z,8.5
2022-11-17T21:31:26.453Z,8.4
2022-11-17T21:33:30.443Z,8.4
2022-11-17T21:35:34.419Z,8.4
2022-11-17T21:38:41.899Z,8.4
2022-11-17T21:40:45.885Z,8.4
2022-11-17T21:44:56.832Z,8.3
2022-11-17T21:47:00.855Z,8.4
2022-11-17T21:51:08.786Z,8.2
2022-11-17T21:53:12.770Z,8.2
2022-11-17T21:57:20.733Z,8.2
2022-11-17T22:01:31.797Z,8.1
2022-11-17T22:03:35.712Z,8.1
2022-11-17T22:09:47.623Z,8.1
2022-11-17T22:11:51.583Z,8
2022-11-17T22:16:02.661Z,8
2022-11-17T22:22:14.484Z,7.9
2022-11-17T22:26:22.478Z,7.9
2022-11-17T22:28:29.447Z,7.8
2022-11-17T22:30:33.411Z,7.8
2022-11-17T22:32:40.059Z,7.8
2022-11-17T22:33:40.874Z,7.8
2022-11-17T22:35:44.941Z,7.8
2022-11-17T22:37:48.812Z,7.7
2022-11-17T22:39:52.784Z,7.7
2022-11-17T22:41:59.768Z,7.7
2022-11-17T22:44:03.741Z,7.7
2022-11-17T22:48:11.648Z,7.7
2022-11-17T22:50:15.599Z,7.7
2022-11-17T22:54:23.546Z,7.7
2022-11-17T22:58:34.467Z,7.7
2022-11-17T23:00:38.425Z,7.7
2022-11-17T23:02:42.382Z,7.6
2022-11-17T23:08:54.250Z,7.7
2022-11-17T23:11:29.747Z,7.6
2022-11-17T23:13:05.169Z,7.7
2022-11-17T23:15:09.125Z,7.6
2022-11-17T23:17:13.093Z,7.6
2022-11-17T23:19:17.494Z,7.7
2022-11-17T23:21:21.011Z,7.6
2022-11-17T23:23:24.945Z,7.6
2022-11-17T23:25:31.904Z,7.5
2022-11-17T23:27:35.860Z,7.5
2022-11-17T23:29:39.797Z,7.5
2022-11-17T23:32:01.993Z,7.4
2022-11-17T23:34:05.977Z,7.4
2022-11-17T23:36:09.913Z,7.4
2022-11-17T23:38:16.877Z,7.4
2022-11-17T23:40:20.818Z,7.4
2022-11-17T23:42:27.497Z,7.4
2022-11-17T23:44:28.722Z,7.4
2022-11-17T23:46:32.667Z,7.4
2022-11-17T23:48:36.623Z,7.3
2022-11-17T23:52:47.502Z,7.2
2022-11-17T23:54:51.451Z,7.3
2022-11-17T23:56:55.399Z,7.4
2022-11-17T23:58:59.354Z,7.3
